sensor_id;sensor_type;location;lat;lon;timestamp;P1;durP1;ratioP1;P2;durP2;ratioP2
55202;SDS011;41077;52.956;6.796;2023-07-29T00:01:58;874.92;;;812.63;;
55202;SDS011;41077;52.956;6.796;2023-07-29T00:04:23;875.70;;;813.28;;
55202;SDS011;41077;52.956;6.796;2023-07-29T00:06:49;851.17;;;791.10;;
55202;SDS011;41077;52.956;6.796;2023-07-29T00:09:15;877.45;;;813.85;;
55202;SDS011;41077;52.956;6.796;2023-07-29T00:11:40;895.83;;;829.78;;
55202;SDS011;41077;52.956;6.796;2023-07-29T00:14:06;884.45;;;821.90;;
55202;SDS011;41077;52.956;6.796;2023-07-29T00:16:31;911.40;;;843.63;;
55202;SDS011;41077;52.956;6.796;2023-07-29T00:18:57;866.97;;;804.95;;
55202;SDS011;41077;52.956;6.796;2023-07-29T00:21:23;872.42;;;810.58;;
55202;SDS011;41077;52.956;6.796;2023-07-29T00:23:49;871.22;;;808.28;;
55202;SDS011;41077;52.956;6.796;2023-07-29T00:26:14;855.70;;;794.90;;
55202;SDS011;41077;52.956;6.796;2023-07-29T00:28:40;888.45;;;823.72;;
55202;SDS011;41077;52.956;6.796;2023-07-29T00:31:06;889.22;;;823.58;;
55202;SDS011;41077;52.956;6.796;2023-07-29T00:33:32;893.53;;;828.58;;
55202;SDS011;41077;52.956;6.796;2023-07-29T00:35:57;889.45;;;824.55;;
55202;SDS011;41077;52.956;6.796;2023-07-29T00:38:26;880.50;;;817.03;;
55202;SDS011;41077;52.956;6.796;2023-07-29T00:40:52;894.88;;;829.13;;
55202;SDS011;41077;52.956;6.796;2023-07-29T00:43:18;895.00;;;830.03;;
55202;SDS011;41077;52.956;6.796;2023-07-29T00:45:44;903.08;;;836.15;;
55202;SDS011;41077;52.956;6.796;2023-07-29T00:48:10;880.42;;;816.47;;
55202;SDS011;41077;52.956;6.796;2023-07-29T00:50:36;916.30;;;847.47;;
55202;SDS011;41077;52.956;6.796;2023-07-29T00:53:02;918.67;;;849.15;;
55202;SDS011;41077;52.956;6.796;2023-07-29T00:55:27;886.17;;;822.28;;
55202;SDS011;41077;52.956;6.796;2023-07-29T00:57:53;920.22;;;850.95;;
55202;SDS011;41077;52.956;6.796;2023-07-29T01:00:20;944.55;;;874.15;;
55202;SDS011;41077;52.956;6.796;2023-07-29T01:02:46;945.30;;;871.85;;
55202;SDS011;41077;52.956;6.796;2023-07-29T01:05:13;948.78;;;873.67;;
55202;SDS011;41077;52.956;6.796;2023-07-29T01:07:48;949.38;;;875.08;;
55202;SDS011;41077;52.956;6.796;2023-07-29T01:17:55;968.75;;;891.83;;
55202;SDS011;41077;52.956;6.796;2023-07-29T01:20:29;922.45;;;852.03;;
55202;SDS011;41077;52.956;6.796;2023-07-29T01:22:57;872.28;;;807.40;;
55202;SDS011;41077;52.956;6.796;2023-07-29T01:25:23;955.58;;;881.85;;
55202;SDS011;41077;52.956;6.796;2023-07-29T01:27:50;943.38;;;870.50;;
55202;SDS011;41077;52.956;6.796;2023-07-29T01:30:17;930.15;;;859.35;;
55202;SDS011;41077;52.956;6.796;2023-07-29T01:35:31;946.15;;;871.90;;
55202;SDS011;41077;52.956;6.796;2023-07-29T01:38:07;957.33;;;883.05;;
55202;SDS011;41077;52.956;6.796;2023-07-29T01:40:38;946.95;;;872.78;;
55202;SDS011;41077;52.956;6.796;2023-07-29T01:43:05;929.75;;;856.63;;
55202;SDS011;41077;52.956;6.796;2023-07-29T01:45:33;918.33;;;848.95;;
55202;SDS011;41077;52.956;6.796;2023-07-29T01:48:03;930.97;;;858.40;;
55202;SDS011;41077;52.956;6.796;2023-07-29T01:50:29;964.22;;;888.60;;
55202;SDS011;41077;52.956;6.796;2023-07-29T01:52:57;966.65;;;888.42;;
55202;SDS011;41077;52.956;6.796;2023-07-29T01:55:23;970.15;;;894.17;;
55202;SDS011;41077;52.956;6.796;2023-07-29T01:57:49;941.25;;;869.70;;
55202;SDS011;41077;52.956;6.796;2023-07-29T02:00:15;967.05;;;890.90;;
55202;SDS011;41077;52.956;6.796;2023-07-29T02:02:40;919.00;;;848.70;;
55202;SDS011;41077;52.956;6.796;2023-07-29T02:05:06;925.78;;;856.63;;
55202;SDS011;41077;52.956;6.796;2023-07-29T02:07:32;946.72;;;873.47;;
55202;SDS011;41077;52.956;6.796;2023-07-29T02:09:58;949.72;;;874.50;;
55202;SDS011;41077;52.956;6.796;2023-07-29T02:12:24;919.75;;;849.88;;
55202;SDS011;41077;52.956;6.796;2023-07-29T02:14:49;914.13;;;846.03;;
55202;SDS011;41077;52.956;6.796;2023-07-29T02:17:15;947.70;;;874.17;;
55202;SDS011;41077;52.956;6.796;2023-07-29T02:19:41;912.10;;;843.42;;
55202;SDS011;41077;52.956;6.796;2023-07-29T02:22:07;943.67;;;870.33;;
55202;SDS011;41077;52.956;6.796;2023-07-29T02:24:33;923.53;;;853.70;;
55202;SDS011;41077;52.956;6.796;2023-07-29T02:26:58;921.55;;;850.08;;
55202;SDS011;41077;52.956;6.796;2023-07-29T02:29:24;896.67;;;829.00;;
55202;SDS011;41077;52.956;6.796;2023-07-29T02:31:50;932.50;;;860.05;;
55202;SDS011;41077;52.956;6.796;2023-07-29T02:34:16;957.55;;;884.03;;
55202;SDS011;41077;52.956;6.796;2023-07-29T02:36:41;928.25;;;856.72;;
55202;SDS011;41077;52.956;6.796;2023-07-29T02:39:07;983.20;;;904.17;;
55202;SDS011;41077;52.956;6.796;2023-07-29T02:41:33;972.13;;;893.78;;
55202;SDS011;41077;52.956;6.796;2023-07-29T02:43:58;945.78;;;872.08;;
55202;SDS011;41077;52.956;6.796;2023-07-29T02:46:24;989.83;;;910.85;;
55202;SDS011;41077;52.956;6.796;2023-07-29T02:48:50;929.03;;;857.67;;
55202;SDS011;41077;52.956;6.796;2023-07-29T02:51:16;931.72;;;860.05;;
55202;SDS011;41077;52.956;6.796;2023-07-29T02:53:42;940.75;;;867.30;;
55202;SDS011;41077;52.956;6.796;2023-07-29T02:56:07;923.40;;;854.50;;
55202;SDS011;41077;52.956;6.796;2023-07-29T02:58:35;935.35;;;863.63;;
55202;SDS011;41077;52.956;6.796;2023-07-29T03:01:02;976.58;;;899.88;;
55202;SDS011;41077;52.956;6.796;2023-07-29T03:03:29;925.88;;;857.10;;
55202;SDS011;41077;52.956;6.796;2023-07-29T03:06:04;868.55;;;804.22;;
55202;SDS011;41077;52.956;6.796;2023-07-29T03:08:31;978.67;;;901.28;;
55202;SDS011;41077;52.956;6.796;2023-07-29T03:10:57;873.00;;;809.95;;
55202;SDS011;41077;52.956;6.796;2023-07-29T03:13:23;909.17;;;840.53;;
55202;SDS011;41077;52.956;6.796;2023-07-29T03:15:49;929.88;;;859.88;;
55202;SDS011;41077;52.956;6.796;2023-07-29T03:18:15;949.28;;;876.47;;
55202;SDS011;41077;52.956;6.796;2023-07-29T03:20:41;864.00;;;801.53;;
55202;SDS011;41077;52.956;6.796;2023-07-29T03:23:06;923.85;;;853.03;;
55202;SDS011;41077;52.956;6.796;2023-07-29T03:25:32;946.47;;;873.47;;
55202;SDS011;41077;52.956;6.796;2023-07-29T03:27:58;912.30;;;843.42;;
55202;SDS011;41077;52.956;6.796;2023-07-29T03:30:24;935.08;;;864.10;;
55202;SDS011;41077;52.956;6.796;2023-07-29T03:32:50;917.38;;;846.92;;
55202;SDS011;41077;52.956;6.796;2023-07-29T03:35:15;915.80;;;846.42;;
55202;SDS011;41077;52.956;6.796;2023-07-29T03:37:41;865.33;;;802.05;;
55202;SDS011;41077;52.956;6.796;2023-07-29T03:40:07;906.83;;;838.78;;
55202;SDS011;41077;52.956;6.796;2023-07-29T03:42:36;937.15;;;863.47;;
55202;SDS011;41077;52.956;6.796;2023-07-29T03:45:02;907.38;;;839.17;;
55202;SDS011;41077;52.956;6.796;2023-07-29T03:47:28;907.25;;;839.20;;
55202;SDS011;41077;52.956;6.796;2023-07-29T03:49:53;852.45;;;790.95;;
55202;SDS011;41077;52.956;6.796;2023-07-29T03:52:19;937.10;;;864.80;;
55202;SDS011;41077;52.956;6.796;2023-07-29T03:54:45;952.25;;;879.50;;
55202;SDS011;41077;52.956;6.796;2023-07-29T03:57:10;880.83;;;816.30;;
55202;SDS011;41077;52.956;6.796;2023-07-29T03:59:36;878.05;;;812.85;;
55202;SDS011;41077;52.956;6.796;2023-07-29T04:02:02;911.97;;;843.30;;
55202;SDS011;41077;52.956;6.796;2023-07-29T04:04:28;896.95;;;830.42;;
55202;SDS011;41077;52.956;6.796;2023-07-29T04:06:53;887.85;;;820.50;;
55202;SDS011;41077;52.956;6.796;2023-07-29T04:09:19;926.00;;;855.88;;
55202;SDS011;41077;52.956;6.796;2023-07-29T04:11:45;860.75;;;798.85;;
55202;SDS011;41077;52.956;6.796;2023-07-29T04:14:10;902.17;;;834.45;;
55202;SDS011;41077;52.956;6.796;2023-07-29T04:16:36;828.83;;;769.00;;
55202;SDS011;41077;52.956;6.796;2023-07-29T04:19:02;895.47;;;827.35;;
55202;SDS011;41077;52.956;6.796;2023-07-29T04:21:27;885.25;;;819.65;;
55202;SDS011;41077;52.956;6.796;2023-07-29T04:23:53;886.13;;;820.53;;
55202;SDS011;41077;52.956;6.796;2023-07-29T04:26:19;880.38;;;815.97;;
55202;SDS011;41077;52.956;6.796;2023-07-29T04:28:44;870.80;;;807.30;;
55202;SDS011;41077;52.956;6.796;2023-07-29T04:31:10;825.45;;;767.58;;
55202;SDS011;41077;52.956;6.796;2023-07-29T04:33:36;907.78;;;838.97;;
55202;SDS011;41077;52.956;6.796;2023-07-29T04:36:01;866.92;;;804.15;;
55202;SDS011;41077;52.956;6.796;2023-07-29T04:38:30;826.40;;;767.35;;
55202;SDS011;41077;52.956;6.796;2023-07-29T04:40:57;840.90;;;779.65;;
55202;SDS011;41077;52.956;6.796;2023-07-29T04:43:32;871.33;;;806.80;;
55202;SDS011;41077;52.956;6.796;2023-07-29T04:45:58;907.00;;;838.33;;
55202;SDS011;41077;52.956;6.796;2023-07-29T04:48:23;884.67;;;818.60;;
55202;SDS011;41077;52.956;6.796;2023-07-29T04:50:49;921.67;;;851.65;;
55202;SDS011;41077;52.956;6.796;2023-07-29T04:53:15;879.97;;;815.30;;
55202;SDS011;41077;52.956;6.796;2023-07-29T04:55:43;886.08;;;820.30;;
55202;SDS011;41077;52.956;6.796;2023-07-29T04:58:09;905.63;;;836.58;;
55202;SDS011;41077;52.956;6.796;2023-07-29T05:00:35;897.67;;;831.35;;
55202;SDS011;41077;52.956;6.796;2023-07-29T05:03:01;909.58;;;841.13;;
55202;SDS011;41077;52.956;6.796;2023-07-29T05:05:27;905.30;;;837.38;;
55202;SDS011;41077;52.956;6.796;2023-07-29T05:07:53;862.25;;;799.63;;
55202;SDS011;41077;52.956;6.796;2023-07-29T05:10:18;865.38;;;802.08;;
55202;SDS011;41077;52.956;6.796;2023-07-29T05:12:44;906.00;;;837.53;;
55202;SDS011;41077;52.956;6.796;2023-07-29T05:15:10;899.60;;;831.53;;
55202;SDS011;41077;52.956;6.796;2023-07-29T05:17:36;836.65;;;774.17;;
55202;SDS011;41077;52.956;6.796;2023-07-29T05:20:02;841.67;;;781.13;;
55202;SDS011;41077;52.956;6.796;2023-07-29T05:22:28;847.13;;;784.17;;
55202;SDS011;41077;52.956;6.796;2023-07-29T05:24:53;879.15;;;814.03;;
55202;SDS011;41077;52.956;6.796;2023-07-29T05:27:19;921.22;;;850.03;;
55202;SDS011;41077;52.956;6.796;2023-07-29T05:29:44;903.38;;;835.47;;
55202;SDS011;41077;52.956;6.796;2023-07-29T05:32:10;834.90;;;773.83;;
55202;SDS011;41077;52.956;6.796;2023-07-29T05:34:36;891.65;;;823.83;;
55202;SDS011;41077;52.956;6.796;2023-07-29T05:37:02;918.55;;;847.65;;
55202;SDS011;41077;52.956;6.796;2023-07-29T05:39:28;878.83;;;813.25;;
55202;SDS011;41077;52.956;6.796;2023-07-29T05:41:53;918.75;;;849.03;;
55202;SDS011;41077;52.956;6.796;2023-07-29T05:44:19;902.55;;;834.00;;
55202;SDS011;41077;52.956;6.796;2023-07-29T05:46:45;846.42;;;784.60;;
55202;SDS011;41077;52.956;6.796;2023-07-29T05:49:11;863.22;;;800.65;;
55202;SDS011;41077;52.956;6.796;2023-07-29T05:51:37;929.22;;;857.75;;
55202;SDS011;41077;52.956;6.796;2023-07-29T05:54:02;893.28;;;826.58;;
55202;SDS011;41077;52.956;6.796;2023-07-29T05:56:28;915.10;;;846.35;;
55202;SDS011;41077;52.956;6.796;2023-07-29T05:58:54;837.08;;;775.85;;
55202;SDS011;41077;52.956;6.796;2023-07-29T06:01:20;895.10;;;827.72;;
55202;SDS011;41077;52.956;6.796;2023-07-29T06:03:46;917.35;;;848.17;;
55202;SDS011;41077;52.956;6.796;2023-07-29T06:06:12;847.00;;;783.53;;
55202;SDS011;41077;52.956;6.796;2023-07-29T06:08:38;843.45;;;782.30;;
55202;SDS011;41077;52.956;6.796;2023-07-29T06:11:04;871.95;;;809.42;;
55202;SDS011;41077;52.956;6.796;2023-07-29T06:13:31;860.25;;;797.50;;
55202;SDS011;41077;52.956;6.796;2023-07-29T06:15:57;864.38;;;799.78;;
55202;SDS011;41077;52.956;6.796;2023-07-29T06:18:23;876.85;;;811.25;;
55202;SDS011;41077;52.956;6.796;2023-07-29T06:20:49;837.08;;;776.33;;
55202;SDS011;41077;52.956;6.796;2023-07-29T06:23:15;853.70;;;791.55;;
55202;SDS011;41077;52.956;6.796;2023-07-29T06:25:41;830.08;;;770.33;;
55202;SDS011;41077;52.956;6.796;2023-07-29T06:28:07;897.10;;;830.97;;
55202;SDS011;41077;52.956;6.796;2023-07-29T06:30:33;879.90;;;816.75;;
55202;SDS011;41077;52.956;6.796;2023-07-29T06:32:59;843.65;;;782.28;;
55202;SDS011;41077;52.956;6.796;2023-07-29T06:35:25;865.03;;;801.17;;
55202;SDS011;41077;52.956;6.796;2023-07-29T06:37:51;837.17;;;776.60;;
55202;SDS011;41077;52.956;6.796;2023-07-29T06:40:16;934.92;;;862.85;;
55202;SDS011;41077;52.956;6.796;2023-07-29T06:42:42;844.05;;;782.88;;
55202;SDS011;41077;52.956;6.796;2023-07-29T06:45:08;851.47;;;789.38;;
55202;SDS011;41077;52.956;6.796;2023-07-29T06:47:34;864.08;;;800.85;;
55202;SDS011;41077;52.956;6.796;2023-07-29T06:49:59;846.83;;;785.53;;
55202;SDS011;41077;52.956;6.796;2023-07-29T06:52:25;942.13;;;868.95;;
55202;SDS011;41077;52.956;6.796;2023-07-29T06:54:51;954.20;;;880.65;;
55202;SDS011;41077;52.956;6.796;2023-07-29T06:57:17;868.13;;;804.28;;
55202;SDS011;41077;52.956;6.796;2023-07-29T06:59:42;844.63;;;782.40;;
55202;SDS011;41077;52.956;6.796;2023-07-29T07:02:08;855.88;;;792.17;;
55202;SDS011;41077;52.956;6.796;2023-07-29T07:04:34;859.17;;;796.22;;
55202;SDS011;41077;52.956;6.796;2023-07-29T07:06:59;862.33;;;797.88;;
55202;SDS011;41077;52.956;6.796;2023-07-29T07:09:25;895.97;;;829.65;;
55202;SDS011;41077;52.956;6.796;2023-07-29T07:11:51;899.00;;;832.97;;
55202;SDS011;41077;52.956;6.796;2023-07-29T07:14:17;870.40;;;807.15;;
55202;SDS011;41077;52.956;6.796;2023-07-29T07:16:43;881.47;;;818.05;;
55202;SDS011;41077;52.956;6.796;2023-07-29T07:19:09;818.85;;;761.67;;
55202;SDS011;41077;52.956;6.796;2023-07-29T07:21:35;783.75;;;730.20;;
55202;SDS011;41077;52.956;6.796;2023-07-29T07:24:01;788.55;;;734.80;;
55202;SDS011;41077;52.956;6.796;2023-07-29T07:26:27;857.80;;;793.70;;
55202;SDS011;41077;52.956;6.796;2023-07-29T07:28:53;778.92;;;725.08;;
55202;SDS011;41077;52.956;6.796;2023-07-29T07:31:19;733.33;;;684.53;;
55202;SDS011;41077;52.956;6.796;2023-07-29T07:33:44;787.10;;;733.83;;
55202;SDS011;41077;52.956;6.796;2023-07-29T07:36:10;776.53;;;722.92;;
55202;SDS011;41077;52.956;6.796;2023-07-29T07:38:36;744.28;;;694.35;;
55202;SDS011;41077;52.956;6.796;2023-07-29T07:41:01;816.42;;;758.65;;
55202;SDS011;41077;52.956;6.796;2023-07-29T07:43:27;747.53;;;697.08;;
55202;SDS011;41077;52.956;6.796;2023-07-29T07:45:59;868.72;;;803.00;;
55202;SDS011;41077;52.956;6.796;2023-07-29T07:48:29;654.15;;;611.97;;
55202;SDS011;41077;52.956;6.796;2023-07-29T07:50:55;665.38;;;622.03;;
55202;SDS011;41077;52.956;6.796;2023-07-29T07:53:21;758.92;;;706.33;;
55202;SDS011;41077;52.956;6.796;2023-07-29T07:55:46;700.17;;;653.90;;
55202;SDS011;41077;52.956;6.796;2023-07-29T07:58:12;671.70;;;627.78;;
55202;SDS011;41077;52.956;6.796;2023-07-29T08:00:38;713.83;;;666.63;;
55202;SDS011;41077;52.956;6.796;2023-07-29T08:03:04;744.63;;;694.45;;
55202;SDS011;41077;52.956;6.796;2023-07-29T08:05:29;705.55;;;658.80;;
55202;SDS011;41077;52.956;6.796;2023-07-29T08:07:55;694.03;;;647.80;;
55202;SDS011;41077;52.956;6.796;2023-07-29T08:10:22;772.25;;;719.15;;
55202;SDS011;41077;52.956;6.796;2023-07-29T08:12:48;785.60;;;731.88;;
55202;SDS011;41077;52.956;6.796;2023-07-29T08:15:13;745.90;;;695.65;;
55202;SDS011;41077;52.956;6.796;2023-07-29T08:17:39;724.15;;;675.90;;
55202;SDS011;41077;52.956;6.796;2023-07-29T08:20:05;668.17;;;624.80;;
55202;SDS011;41077;52.956;6.796;2023-07-29T08:22:31;735.30;;;686.58;;
55202;SDS011;41077;52.956;6.796;2023-07-29T08:24:57;680.67;;;635.72;;
55202;SDS011;41077;52.956;6.796;2023-07-29T08:27:23;721.92;;;673.78;;
55202;SDS011;41077;52.956;6.796;2023-07-29T08:29:48;772.55;;;719.90;;
55202;SDS011;41077;52.956;6.796;2023-07-29T08:32:14;801.33;;;745.42;;
55202;SDS011;41077;52.956;6.796;2023-07-29T08:34:40;825.25;;;766.80;;
55202;SDS011;41077;52.956;6.796;2023-07-29T08:37:05;810.38;;;754.67;;
55202;SDS011;41077;52.956;6.796;2023-07-29T08:39:31;787.35;;;733.25;;
55202;SDS011;41077;52.956;6.796;2023-07-29T08:42:09;742.83;;;692.45;;
55202;SDS011;41077;52.956;6.796;2023-07-29T08:44:41;792.33;;;736.38;;
55202;SDS011;41077;52.956;6.796;2023-07-29T08:47:08;745.65;;;695.08;;
55202;SDS011;41077;52.956;6.796;2023-07-29T08:49:33;739.20;;;689.00;;
55202;SDS011;41077;52.956;6.796;2023-07-29T08:52:00;712.08;;;664.17;;
55202;SDS011;41077;52.956;6.796;2023-07-29T08:54:26;771.90;;;717.92;;
55202;SDS011;41077;52.956;6.796;2023-07-29T08:56:52;643.72;;;602.90;;
55202;SDS011;41077;52.956;6.796;2023-07-29T08:59:18;662.65;;;620.42;;
55202;SDS011;41077;52.956;6.796;2023-07-29T09:01:45;594.97;;;557.20;;
55202;SDS011;41077;52.956;6.796;2023-07-29T09:04:12;657.40;;;614.45;;
55202;SDS011;41077;52.956;6.796;2023-07-29T09:06:39;656.28;;;613.58;;
55202;SDS011;41077;52.956;6.796;2023-07-29T09:09:08;651.08;;;609.00;;
55202;SDS011;41077;52.956;6.796;2023-07-29T09:11:34;720.65;;;670.45;;
55202;SDS011;41077;52.956;6.796;2023-07-29T09:14:01;644.33;;;602.13;;
55202;SDS011;41077;52.956;6.796;2023-07-29T09:16:26;607.15;;;569.33;;
55202;SDS011;41077;52.956;6.796;2023-07-29T09:18:52;632.55;;;591.50;;
55202;SDS011;41077;52.956;6.796;2023-07-29T09:21:22;605.38;;;567.22;;
55202;SDS011;41077;52.956;6.796;2023-07-29T09:23:50;652.45;;;609.70;;
55202;SDS011;41077;52.956;6.796;2023-07-29T09:26:26;612.95;;;573.70;;
55202;SDS011;41077;52.956;6.796;2023-07-29T09:28:53;592.40;;;554.95;;
55202;SDS011;41077;52.956;6.796;2023-07-29T09:31:21;660.95;;;617.15;;
55202;SDS011;41077;52.956;6.796;2023-07-29T09:33:48;631.13;;;590.25;;
55202;SDS011;41077;52.956;6.796;2023-07-29T09:36:14;648.13;;;605.05;;
55202;SDS011;41077;52.956;6.796;2023-07-29T09:38:40;645.92;;;603.58;;
55202;SDS011;41077;52.956;6.796;2023-07-29T09:41:06;634.47;;;592.83;;
55202;SDS011;41077;52.956;6.796;2023-07-29T09:43:33;673.78;;;628.47;;
55202;SDS011;41077;52.956;6.796;2023-07-29T09:46:02;707.70;;;660.83;;
55202;SDS011;41077;52.956;6.796;2023-07-29T09:48:33;651.60;;;609.00;;
55202;SDS011;41077;52.956;6.796;2023-07-29T09:51:09;661.70;;;617.00;;
55202;SDS011;41077;52.956;6.796;2023-07-29T09:53:39;623.72;;;582.17;;
55202;SDS011;41077;52.956;6.796;2023-07-29T09:56:09;660.47;;;616.50;;
55202;SDS011;41077;52.956;6.796;2023-07-29T09:58:35;651.75;;;607.95;;
55202;SDS011;41077;52.956;6.796;2023-07-29T10:01:03;688.03;;;642.53;;
55202;SDS011;41077;52.956;6.796;2023-07-29T10:03:30;700.20;;;653.58;;
55202;SDS011;41077;52.956;6.796;2023-07-29T10:05:59;698.65;;;651.45;;
55202;SDS011;41077;52.956;6.796;2023-07-29T10:08:27;667.03;;;622.65;;
55202;SDS011;41077;52.956;6.796;2023-07-29T10:11:09;651.17;;;607.10;;
55202;SDS011;41077;52.956;6.796;2023-07-29T10:13:36;663.53;;;619.80;;
55202;SDS011;41077;52.956;6.796;2023-07-29T10:16:03;624.42;;;581.85;;
55202;SDS011;41077;52.956;6.796;2023-07-29T10:18:30;660.95;;;617.65;;
55202;SDS011;41077;52.956;6.796;2023-07-29T10:20:58;668.90;;;624.60;;
55202;SDS011;41077;52.956;6.796;2023-07-29T10:23:25;624.67;;;583.75;;
55202;SDS011;41077;52.956;6.796;2023-07-29T10:25:57;616.38;;;575.95;;
55202;SDS011;41077;52.956;6.796;2023-07-29T10:28:25;624.15;;;582.90;;
55202;SDS011;41077;52.956;6.796;2023-07-29T10:30:53;616.35;;;576.35;;
55202;SDS011;41077;52.956;6.796;2023-07-29T10:33:19;642.42;;;599.60;;
55202;SDS011;41077;52.956;6.796;2023-07-29T10:35:45;651.20;;;607.88;;
55202;SDS011;41077;52.956;6.796;2023-07-29T10:38:11;631.92;;;589.75;;
55202;SDS011;41077;52.956;6.796;2023-07-29T10:40:47;682.70;;;635.90;;
55202;SDS011;41077;52.956;6.796;2023-07-29T10:43:25;665.83;;;620.55;;
55202;SDS011;41077;52.956;6.796;2023-07-29T10:45:52;647.55;;;604.72;;
55202;SDS011;41077;52.956;6.796;2023-07-29T10:53:55;552.38;;;517.17;;
55202;SDS011;41077;52.956;6.796;2023-07-29T10:56:32;541.72;;;507.98;;
55202;SDS011;41077;52.956;6.796;2023-07-29T10:59:02;632.90;;;590.35;;
55202;SDS011;41077;52.956;6.796;2023-07-29T11:01:38;585.63;;;547.30;;
55202;SDS011;41077;52.956;6.796;2023-07-29T11:07:17;620.53;;;580.22;;
55202;SDS011;41077;52.956;6.796;2023-07-29T11:17:42;633.15;;;591.35;;
55202;SDS011;41077;52.956;6.796;2023-07-29T11:20:20;675.90;;;630.95;;
55202;SDS011;41077;52.956;6.796;2023-07-29T11:22:47;704.70;;;653.03;;
55202;SDS011;41077;52.956;6.796;2023-07-29T11:25:14;690.20;;;642.38;;
55202;SDS011;41077;52.956;6.796;2023-07-29T11:27:42;672.45;;;626.65;;
55202;SDS011;41077;52.956;6.796;2023-07-29T11:30:09;676.42;;;630.38;;
55202;SDS011;41077;52.956;6.796;2023-07-29T11:32:36;678.17;;;633.15;;
55202;SDS011;41077;52.956;6.796;2023-07-29T11:35:07;711.50;;;663.25;;
55202;SDS011;41077;52.956;6.796;2023-07-29T11:37:35;728.10;;;678.08;;
55202;SDS011;41077;52.956;6.796;2023-07-29T11:40:01;702.85;;;654.85;;
55202;SDS011;41077;52.956;6.796;2023-07-29T11:42:27;640.38;;;597.38;;
55202;SDS011;41077;52.956;6.796;2023-07-29T11:44:57;657.45;;;614.45;;
55202;SDS011;41077;52.956;6.796;2023-07-29T11:47:23;676.83;;;630.55;;
55202;SDS011;41077;52.956;6.796;2023-07-29T11:49:49;679.13;;;632.78;;
55202;SDS011;41077;52.956;6.796;2023-07-29T11:52:15;689.90;;;643.53;;
55202;SDS011;41077;52.956;6.796;2023-07-29T11:54:45;697.65;;;651.05;;
55202;SDS011;41077;52.956;6.796;2023-07-29T11:57:13;681.80;;;634.15;;
55202;SDS011;41077;52.956;6.796;2023-07-29T11:59:40;704.95;;;656.90;;
55202;SDS011;41077;52.956;6.796;2023-07-29T12:02:11;694.47;;;646.83;;
55202;SDS011;41077;52.956;6.796;2023-07-29T12:04:41;702.88;;;655.47;;
55202;SDS011;41077;52.956;6.796;2023-07-29T12:07:07;727.17;;;677.53;;
55202;SDS011;41077;52.956;6.796;2023-07-29T12:09:34;690.63;;;643.42;;
55202;SDS011;41077;52.956;6.796;2023-07-29T12:12:03;695.25;;;649.00;;
55202;SDS011;41077;52.956;6.796;2023-07-29T12:14:30;728.15;;;677.85;;
55202;SDS011;41077;52.956;6.796;2023-07-29T12:16:56;748.08;;;693.65;;
55202;SDS011;41077;52.956;6.796;2023-07-29T12:19:36;715.55;;;666.95;;
55202;SDS011;41077;52.956;6.796;2023-07-29T12:22:03;718.17;;;666.85;;
55202;SDS011;41077;52.956;6.796;2023-07-29T12:24:30;696.30;;;647.97;;
55202;SDS011;41077;52.956;6.796;2023-07-29T12:26:57;687.25;;;638.85;;
55202;SDS011;41077;52.956;6.796;2023-07-29T12:29:23;661.58;;;615.58;;
55202;SDS011;41077;52.956;6.796;2023-07-29T12:31:56;588.08;;;547.22;;
55202;SDS011;41077;52.956;6.796;2023-07-29T12:34:27;664.05;;;618.25;;
55202;SDS011;41077;52.956;6.796;2023-07-29T12:36:54;568.88;;;528.70;;
55202;SDS011;41077;52.956;6.796;2023-07-29T12:41:50;514.20;;;480.50;;
55202;SDS011;41077;52.956;6.796;2023-07-29T12:44:17;513.30;;;480.52;;
55202;SDS011;41077;52.956;6.796;2023-07-29T12:46:43;495.27;;;464.27;;
55202;SDS011;41077;52.956;6.796;2023-07-29T12:49:09;531.80;;;497.67;;
55202;SDS011;41077;52.956;6.796;2023-07-29T12:51:35;507.20;;;474.05;;
55202;SDS011;41077;52.956;6.796;2023-07-29T12:54:02;468.13;;;438.83;;
55202;SDS011;41077;52.956;6.796;2023-07-29T12:56:29;515.05;;;480.65;;
55202;SDS011;41077;52.956;6.796;2023-07-29T12:58:59;537.22;;;498.77;;
55202;SDS011;41077;52.956;6.796;2023-07-29T13:01:25;487.77;;;455.67;;
55202;SDS011;41077;52.956;6.796;2023-07-29T13:03:51;453.60;;;425.60;;
55202;SDS011;41077;52.956;6.796;2023-07-29T13:06:17;496.50;;;465.25;;
55202;SDS011;41077;52.956;6.796;2023-07-29T13:08:43;479.02;;;448.35;;
55202;SDS011;41077;52.956;6.796;2023-07-29T13:11:10;509.73;;;474.83;;
55202;SDS011;41077;52.956;6.796;2023-07-29T13:13:35;428.50;;;401.88;;
55202;SDS011;41077;52.956;6.796;2023-07-29T13:16:01;397.38;;;374.17;;
55202;SDS011;41077;52.956;6.796;2023-07-29T13:18:27;512.40;;;479.02;;
55202;SDS011;41077;52.956;6.796;2023-07-29T13:20:53;421.15;;;395.73;;
55202;SDS011;41077;52.956;6.796;2023-07-29T13:23:19;501.38;;;470.08;;
55202;SDS011;41077;52.956;6.796;2023-07-29T13:25:45;365.67;;;344.08;;
55202;SDS011;41077;52.956;6.796;2023-07-29T13:28:11;399.92;;;375.35;;
55202;SDS011;41077;52.956;6.796;2023-07-29T13:30:40;474.40;;;445.30;;
55202;SDS011;41077;52.956;6.796;2023-07-29T13:33:06;417.65;;;392.70;;
55202;SDS011;41077;52.956;6.796;2023-07-29T13:35:32;471.83;;;442.83;;
55202;SDS011;41077;52.956;6.796;2023-07-29T13:37:58;461.95;;;432.58;;
55202;SDS011;41077;52.956;6.796;2023-07-29T13:40:23;500.20;;;467.45;;
55202;SDS011;41077;52.956;6.796;2023-07-29T13:42:49;433.20;;;406.30;;
55202;SDS011;41077;52.956;6.796;2023-07-29T13:45:15;484.30;;;453.75;;
55202;SDS011;41077;52.956;6.796;2023-07-29T13:47:40;434.00;;;408.60;;
55202;SDS011;41077;52.956;6.796;2023-07-29T13:50:06;458.60;;;430.77;;
55202;SDS011;41077;52.956;6.796;2023-07-29T13:52:35;474.70;;;445.70;;
55202;SDS011;41077;52.956;6.796;2023-07-29T13:55:02;466.70;;;438.15;;
55202;SDS011;41077;52.956;6.796;2023-07-29T13:57:28;432.70;;;406.20;;
55202;SDS011;41077;52.956;6.796;2023-07-29T13:59:54;442.45;;;414.38;;
55202;SDS011;41077;52.956;6.796;2023-07-29T14:02:20;482.30;;;451.15;;
55202;SDS011;41077;52.956;6.796;2023-07-29T14:04:45;460.42;;;431.67;;
55202;SDS011;41077;52.956;6.796;2023-07-29T14:07:11;490.33;;;458.50;;
55202;SDS011;41077;52.956;6.796;2023-07-29T14:09:37;472.40;;;442.05;;
55202;SDS011;41077;52.956;6.796;2023-07-29T14:12:03;531.05;;;496.35;;
55202;SDS011;41077;52.956;6.796;2023-07-29T14:14:30;520.17;;;486.17;;
55202;SDS011;41077;52.956;6.796;2023-07-29T14:16:56;527.58;;;493.60;;
55202;SDS011;41077;52.956;6.796;2023-07-29T14:19:22;489.63;;;458.33;;
55202;SDS011;41077;52.956;6.796;2023-07-29T14:21:48;501.85;;;469.30;;
55202;SDS011;41077;52.956;6.796;2023-07-29T14:24:14;497.45;;;464.77;;